Главная страница
METAR-TAF:

METAR-TAF

Аэропорты :

Мардин, Турция

широта: 37-13-58N, долгота: 40-38-26E, высота над уровнем моря: 527 м

Текущие метеонаблюдения

Эта сводка был подготовлена 9 часа и 23 минут назад, в 14:50 UTC
Ветер 3 Узел от северно-северо-западный, изменяющийся между западно-северо-западный и северо-северо-восточный
Температура 28°C
Влажность 28%
Давление 1017 hPa
Видимость 10 км и более
Нет облачности ниже 1500 м, и нет кучево-дождевой облачности

METAR: LTCR 181450Z 34003KT 300V020 CAVOK 28/08 Q1017

Время: 03:13 (00:13 UTC)

Прогноз

Эта сводка был подготовлена 10 часа и 33 минут назад, в 13:40 UTC
Прогноз действительный с 18-го 15 UTC до 18-го 24 UTC
Ветер 12 Узел от северный
Видимость 10 км и более
Нет облачности ниже 1500 м, и нет кучево-дождевой облачности

TAF: LTCR 181340Z 1815/1824 35012KT CAVOK

Метеонаблюдения и прогнозы для более 4000 аэропортов (сводки METAR и TAF).

Имеющиеся станции представлены на карте желтыми и красными точками.

Чтобы увидеть название станции, наведите на нее мышь.

Затем щелкните, чтобы увидеть метеонаблюдения и метеопрогнозы.

Управление картой: чтобы увеличить масштаб, щелкните зеленые кнопки с черным крестиком; чтобы уменьшить масштаб, щелкните зеленую кнопку с тире; для просмотра соседних карт щелкайте зеленые стрелки.


METAR-TAF: